Time;durP1;ratioP1;P1;durP2;ratioP2;P2;SDS_P1;SDS_P2;PMS_P1;PMS_P2;Temp;Humidity;BMP_temperature;BMP_pressure;BME280_temperature;BME280_humidity;BME280_pressure;Samples;Min_cycle;Max_cycle;Signal;HPM_P1;HPM_P2
2023/01/05 00:01:09;;;;;;;3.30;2.63;;;;;;;7.65;99.72;98168.19;1751852;82;21023;-42
2023/01/05 00:03:36;;;;;;;4.78;2.50;;;;;;;7.64;99.45;98149.52;1751120;80;21456;-40
2023/01/05 00:06:05;;;;;;;5.55;3.33;;;;;;;7.65;99.55;98139.41;1751843;81;21480;-39
2023/01/05 00:08:31;;;;;;;3.58;2.70;;;;;;;7.70;99.50;98149.59;1751612;80;21002;-42
2023/01/05 00:22:31;;;;;;;4.35;2.20;;;;;;;7.82;99.38;98112.65;1751808;80;20970;-42
2023/01/05 00:25:11;;;;;;;2.62;2.20;;;;;;;7.80;99.65;98128.92;1751818;80;21571;-41
2023/01/05 00:27:37;;;;;;;4.45;2.15;;;;;;;7.86;99.79;98112.85;1751789;80;20995;-42
2023/01/05 00:30:05;;;;;;;3.90;1.77;;;;;;;7.91;99.82;98098.14;1751985;82;20987;-40
2023/01/05 00:32:31;;;;;;;2.20;1.85;;;;;;;7.93;100.00;98111.53;1751732;82;20975;-43
2023/01/05 00:34:57;;;;;;;2.12;1.92;;;;;;;8.00;100.00;98107.55;1751583;82;21515;-43
2023/01/05 00:37:27;;;;;;;2.52;2.25;;;;;;;7.98;100.00;98115.98;1751719;80;20986;-41
2023/01/05 00:39:53;;;;;;;2.30;1.90;;;;;;;8.02;100.00;98112.70;1751844;80;20978;-42
2023/01/05 00:42:19;;;;;;;2.20;2.00;;;;;;;8.01;100.00;98105.32;1751735;80;21007;-41
2023/01/05 00:44:45;;;;;;;1.90;1.62;;;;;;;8.04;100.00;98102.96;1754968;80;21048;-40
2023/01/05 00:47:12;;;;;;;2.52;1.95;;;;;;;8.07;100.00;98127.17;1766778;81;20984;-40
2023/01/05 00:49:39;;;;;;;2.87;1.90;;;;;;;8.10;100.00;98075.57;1767061;81;20999;-40
2023/01/05 00:52:05;;;;;;;2.37;2.00;;;;;;;8.11;100.00;98092.47;1766988;81;21040;-41
2023/01/05 00:54:31;;;;;;;3.02;2.22;;;;;;;8.09;100.00;98086.49;1766797;81;21515;-42
2023/01/05 00:56:57;;;;;;;1.95;1.82;;;;;;;8.16;99.85;98091.70;1766836;81;21035;-39
2023/01/05 00:59:23;;;;;;;2.00;1.80;;;;;;;8.17;99.71;98086.85;1766909;81;21561;-41
2023/01/05 01:01:51;;;;;;;2.20;1.98;;;;;;;8.15;99.35;98076.09;1766864;81;20995;-39
2023/01/05 01:04:18;;;;;;;3.60;2.00;;;;;;;8.21;99.36;98071.78;1766919;81;20972;-42
2023/01/05 01:06:44;;;;;;;2.52;2.15;;;;;;;8.21;98.98;98071.30;1766995;81;21465;-40
2023/01/05 01:09:12;;;;;;;2.17;2.00;;;;;;;8.22;98.82;98064.28;1766816;81;21473;-41
2023/01/05 01:11:38;;;;;;;2.35;2.10;;;;;;;8.24;98.92;98067.63;1766899;81;20960;-41
2023/01/05 01:14:07;;;;;;;2.10;2.00;;;;;;;8.23;98.81;98053.70;1767046;80;21028;-40
2023/01/05 01:16:33;;;;;;;2.55;2.05;;;;;;;8.27;98.90;98058.27;1766717;81;21509;-39
2023/01/05 01:19:00;;;;;;;4.33;2.00;;;;;;;8.27;98.68;98054.34;1767056;81;20987;-40
2023/01/05 01:21:26;;;;;;;1.75;1.65;;;;;;;8.25;99.12;98064.91;1766831;81;20996;-41
2023/01/05 01:23:52;;;;;;;2.00;1.80;;;;;;;8.24;99.31;98040.13;1767045;81;20988;-43
2023/01/05 01:26:18;;;;;;;2.27;2.08;;;;;;;8.22;99.66;98046.80;1766775;81;21110;-42
2023/01/05 01:28:46;;;;;;;2.33;2.12;;;;;;;8.21;99.83;98035.12;1766777;81;20960;-39
2023/01/05 01:31:12;;;;;;;2.55;2.35;;;;;;;8.18;99.83;98028.77;1766362;81;21612;-42
2023/01/05 01:33:39;;;;;;;3.37;2.40;;;;;;;8.12;100.00;98040.96;1766966;81;20970;-41
2023/01/05 01:36:08;;;;;;;2.30;2.05;;;;;;;8.10;100.00;98018.80;1767002;81;20991;-40
2023/01/05 01:38:35;;;;;;;3.60;2.30;;;;;;;8.07;100.00;98017.20;1766763;81;20980;-41
2023/01/05 01:41:01;;;;;;;2.52;2.10;;;;;;;8.05;100.00;98023.02;1766828;81;20987;-40
2023/01/05 01:43:44;;;;;;;2.52;2.30;;;;;;;7.98;100.00;98011.26;1766759;81;21020;-41
2023/01/05 01:46:11;;;;;;;2.40;2.20;;;;;;;8.03;100.00;98022.76;1766645;80;21015;-41
2023/01/05 01:48:46;;;;;;;2.05;1.90;;;;;;;7.96;100.00;97977.80;1766999;81;20968;-42
2023/01/05 01:51:17;;;;;;;3.45;2.30;;;;;;;7.99;100.00;98006.89;1766736;81;21036;-40
2023/01/05 01:53:49;;;;;;;2.95;2.00;;;;;;;7.98;100.00;98002.58;1766551;81;20992;-43
2023/01/05 01:56:18;;;;;;;3.45;2.00;;;;;;;7.97;100.00;97986.04;1766821;81;21011;-42
2023/01/05 01:58:44;;;;;;;3.47;2.52;;;;;;;7.95;100.00;97986.61;1766911;81;21027;-43
2023/01/05 02:01:10;;;;;;;2.98;1.98;;;;;;;7.98;100.00;97977.23;1766770;81;20964;-42
2023/01/05 02:03:37;;;;;;;2.27;2.00;;;;;;;7.96;100.00;98004.45;1766634;81;20952;-40
2023/01/05 02:06:04;;;;;;;3.92;1.47;;;;;;;7.97;100.00;98003.05;1766853;81;20992;-41
2023/01/05 02:08:30;;;;;;;2.30;1.55;;;;;;;8.03;100.00;97978.25;1766694;81;20960;-40
2023/01/05 02:11:33;;;;;;;2.55;1.77;;;;;;;8.06;100.00;97997.21;1766710;81;20968;-42
2023/01/05 02:14:21;;;;;;;2.45;1.80;;;;;;;8.05;100.00;97994.22;1766573;81;21496;-41
2023/01/05 02:17:20;;;;;;;1.95;1.40;;;;;;;8.07;100.00;97994.12;1766734;81;20960;-41
2023/01/05 02:20:33;;;;;;;1.98;1.40;;;;;;;8.09;100.00;97985.69;1766223;81;21460;-44
2023/01/05 02:23:44;;;;;;;5.72;1.50;;;;;;;8.11;100.00;97996.06;1766713;81;21015;-41
2023/01/05 02:26:27;;;;;;;5.28;1.52;;;;;;;7.98;100.00;97975.09;1766802;81;21018;-44
2023/01/05 02:29:22;;;;;;;1.27;1.17;;;;;;;7.98;100.00;97977.70;1761038;81;20964;-41
2023/01/05 02:32:13;;;;;;;2.22;1.32;;;;;;;7.92;100.00;97968.48;1766104;81;21043;-40
2023/01/05 02:34:53;;;;;;;1.07;0.98;;;;;;;7.92;100.00;97973.72;1766751;81;20992;-43
2023/01/05 02:37:49;;;;;;;1.32;1.12;;;;;;;7.91;100.00;97969.41;1766495;81;20961;-41
2023/01/05 02:43:13;;;;;;;1.27;0.98;;;;;;;7.96;100.00;97959.48;1755002;80;21141;-39
2023/01/05 02:45:38;;;;;;;1.42;1.00;;;;;;;7.97;100.00;97964.27;1757383;81;20974;-44
2023/01/05 02:48:05;;;;;;;1.67;0.82;;;;;;;7.97;100.00;97961.17;1757331;82;20974;-44
2023/01/05 02:50:38;;;;;;;2.47;0.93;;;;;;;7.93;100.00;97949.23;1757317;82;20966;-43
2023/01/05 02:53:29;;;;;;;1.12;0.90;;;;;;;7.91;100.00;97945.85;1756925;82;21108;-40
2023/01/05 02:56:00;;;;;;;3.58;0.90;;;;;;;7.88;100.00;97955.23;1757312;82;21459;-41
2023/01/05 02:58:42;;;;;;;1.02;0.78;;;;;;;7.87;100.00;97929.50;1756718;81;21005;-42
2023/01/05 03:01:29;;;;;;;0.90;0.90;;;;;;;7.83;100.00;97938.98;1757402;82;20973;-41
2023/01/05 03:04:06;;;;;;;1.20;0.90;;;;;;;7.82;100.00;97946.45;1757633;82;20971;-41
2023/01/05 03:06:45;;;;;;;1.62;0.98;;;;;;;7.85;100.00;97943.65;1756123;80;20966;-41
2023/01/05 03:09:11;;;;;;;1.72;0.90;;;;;;;7.83;100.00;97946.84;1757073;81;20997;-43
2023/01/05 03:14:40;;;;;;;0.45;0.45;;;;;;;7.83;100.00;97938.98;1741226;82;21001;-43
2023/01/05 03:17:11;;;;;;;1.05;0.72;;;;;;;7.82;100.00;97942.09;1754135;81;21009;-42
2023/01/05 03:19:39;;;;;;;0.68;0.60;;;;;;;7.83;100.00;97942.91;1757292;82;20981;-43
2023/01/05 03:36:57;;;;;;;2.92;0.55;;;;;;;7.55;100.00;97938.17;1755350;82;21074;-41
2023/01/05 03:39:26;;;;;;;5.87;0.50;;;;;;;7.51;100.00;97939.29;1754883;81;21002;-43
2023/01/05 03:41:53;;;;;;;0.62;0.33;;;;;;;7.54;100.00;97937.80;1747435;81;21058;-42
2023/01/05 03:44:19;;;;;;;0.90;0.67;;;;;;;7.54;100.00;97948.73;1729894;83;20995;-40
2023/01/05 03:46:45;;;;;;;3.83;0.60;;;;;;;7.58;100.00;97948.42;1729711;83;21002;-41
2023/01/05 03:49:12;;;;;;;2.98;0.60;;;;;;;7.53;100.00;97943.98;1729762;83;20990;-41
2023/01/05 03:51:38;;;;;;;0.60;0.60;;;;;;;7.55;100.00;97932.95;1729836;83;21133;-42
2023/01/05 03:54:04;;;;;;;0.57;0.55;;;;;;;7.58;100.00;97936.65;1729753;83;20959;-42
2023/01/05 03:56:30;;;;;;;0.78;0.60;;;;;;;7.59;100.00;97942.27;1729770;81;21491;-41
2023/01/05 03:58:56;;;;;;;1.60;0.40;;;;;;;7.60;100.00;97927.40;1729786;82;21038;-41
2023/01/05 04:01:22;;;;;;;0.55;0.55;;;;;;;7.60;100.00;97929.53;1729805;83;20967;-43
2023/01/05 04:03:48;;;;;;;0.72;0.70;;;;;;;7.66;100.00;97940.10;1729731;83;20991;-41
2023/01/05 04:06:13;;;;;;;0.68;0.50;;;;;;;7.65;100.00;97936.63;1729716;83;21038;-41
2023/01/05 04:08:39;;;;;;;0.95;0.65;;;;;;;7.66;100.00;97937.00;1729726;82;20978;-43
2023/01/05 04:11:21;;;;;;;1.15;0.80;;;;;;;7.64;100.00;97937.58;1729704;83;21034;-44
2023/01/05 04:13:47;;;;;;;0.78;0.53;;;;;;;7.69;100.00;97939.88;1729715;82;21088;-44
2023/01/05 04:16:13;;;;;;;0.60;0.60;;;;;;;7.66;100.00;97934.39;1729718;83;20998;-42
2023/01/05 04:18:39;;;;;;;1.55;0.72;;;;;;;7.66;100.00;97939.62;1729735;83;21002;-41
2023/01/05 04:21:06;;;;;;;0.62;0.62;;;;;;;7.67;100.00;97932.12;1729736;83;20998;-41
2023/01/05 04:23:31;;;;;;;0.60;0.60;;;;;;;7.67;100.00;97942.59;1729771;83;20991;-43
2023/01/05 04:25:58;;;;;;;0.90;0.57;;;;;;;7.63;100.00;97945.52;1766366;81;21492;-40
2023/01/05 04:28:24;;;;;;;0.90;0.75;;;;;;;7.66;100.00;97937.00;1775756;81;20992;-40
2023/01/05 04:30:54;;;;;;;1.00;0.90;;;;;;;7.69;100.00;97942.05;1775752;81;21055;-42
2023/01/05 04:33:22;;;;;;;1.32;0.90;;;;;;;7.67;100.00;97948.30;1775793;81;21022;-42
2023/01/05 04:35:48;;;;;;;;;;;;;;;7.73;100.00;97947.92;1778459;81;20975;-42
2023/01/05 04:38:14;;;;;;;2.05;0.90;;;;;;;7.68;100.00;97954.75;1775853;81;20152;-40
2023/01/05 04:40:40;;;;;;;4.00;0.78;;;;;;;7.73;100.00;97964.07;1775816;81;20963;-42
2023/01/05 04:43:06;;;;;;;1.92;1.30;;;;;;;7.70;100.00;97952.04;1768259;81;21567;-42
2023/01/05 04:45:32;;;;;;;1.55;0.90;;;;;;;7.75;100.00;97963.50;1764960;80;21023;-43
2023/01/05 04:47:59;;;;;;;1.00;0.80;;;;;;;7.78;100.00;97958.08;1765187;81;21496;-40
2023/01/05 04:50:26;;;;;;;1.32;0.88;;;;;;;7.78;100.00;97964.14;1765011;80;21349;-41
2023/01/05 04:52:52;;;;;;;1.30;0.90;;;;;;;7.78;100.00;97962.83;1764867;81;21462;-43
2023/01/05 04:55:18;;;;;;;1.57;0.90;;;;;;;7.73;100.00;97968.00;1764884;80;21023;-42
2023/01/05 04:57:44;;;;;;;0.93;0.75;;;;;;;7.76;100.00;97969.94;1764822;81;21039;-43
2023/01/05 05:00:11;;;;;;;1.02;0.80;;;;;;;7.80;100.00;97970.58;1764970;81;21505;-43
2023/01/05 05:02:36;;;;;;;2.83;0.90;;;;;;;7.79;100.00;97971.54;1765113;81;20972;-41
2023/01/05 05:05:02;;;;;;;1.10;0.90;;;;;;;7.78;100.00;97965.45;1764935;81;21521;-43
2023/01/05 05:07:29;;;;;;;2.45;0.93;;;;;;;7.82;100.00;97964.78;1764943;80;21003;-42
2023/01/05 05:09:54;;;;;;;1.05;0.88;;;;;;;7.85;100.00;97967.20;1764947;81;20979;-45
2023/01/05 05:12:20;;;;;;;1.30;1.20;;;;;;;7.80;100.00;97964.88;1764845;80;21003;-42
2023/01/05 05:14:49;;;;;;;1.12;1.02;;;;;;;7.81;100.00;97965.73;1764973;80;20968;-41
2023/01/05 05:17:16;;;;;;;2.42;1.20;;;;;;;7.85;100.00;97952.81;1764887;80;21027;-41
2023/01/05 05:19:42;;;;;;;3.67;1.40;;;;;;;7.82;100.00;97955.17;1764871;81;20980;-40
2023/01/05 05:22:08;;;;;;;1.42;1.10;;;;;;;7.83;100.00;97949.45;1764856;80;21481;-41
2023/01/05 05:24:34;;;;;;;2.12;1.45;;;;;;;7.87;100.00;97960.09;1764829;81;21457;-42
2023/01/05 05:27:00;;;;;;;1.98;1.30;;;;;;;7.88;100.00;97955.23;1764972;81;20992;-42
2023/01/05 05:29:26;;;;;;;3.15;1.40;;;;;;;7.80;100.00;97958.33;1765004;80;20964;-41
2023/01/05 05:31:52;;;;;;;1.72;1.60;;;;;;;7.87;100.00;97961.39;1764852;80;20968;-43
2023/01/05 05:34:18;;;;;;;2.52;1.37;;;;;;;7.84;100.00;97967.68;1764846;81;20996;-42
2023/01/05 05:36:44;;;;;;;3.33;1.40;;;;;;;7.86;100.00;97957.12;1764839;80;21039;-41
2023/01/05 05:39:15;;;;;;;2.20;1.30;;;;;;;7.86;100.00;97964.49;1764917;81;21529;-42
2023/01/05 05:41:40;;;;;;;3.27;1.42;;;;;;;7.80;100.00;97952.27;1765033;80;21019;-43
2023/01/05 05:44:07;;;;;;;4.10;1.50;;;;;;;7.88;100.00;97970.94;1764704;80;21020;-43
2023/01/05 05:46:33;;;;;;;4.05;1.45;;;;;;;7.87;100.00;97953.06;1765148;81;21445;-42
2023/01/05 05:49:00;;;;;;;1.98;1.52;;;;;;;7.91;100.00;97962.86;1764705;80;21497;-42
2023/01/05 05:51:26;;;;;;;2.45;1.70;;;;;;;7.91;100.00;97963.34;1764847;81;21461;-41
2023/01/05 05:53:52;;;;;;;6.47;2.10;;;;;;;7.92;100.00;97968.95;1764790;80;21469;-41
2023/01/05 05:56:18;;;;;;;5.72;2.27;;;;;;;7.92;100.00;97967.17;1764851;80;21538;-42
2023/01/05 05:58:44;;;;;;;3.77;1.92;;;;;;;7.92;100.00;97964.55;1764897;80;21516;-40
2023/01/05 06:01:11;;;;;;;11.18;4.40;;;;;;;7.86;100.00;97957.12;1764840;81;21508;-41
2023/01/05 06:03:37;;;;;;;7.50;3.55;;;;;;;7.93;100.00;97976.72;1764845;81;21505;-42
2023/01/05 06:06:03;;;;;;;8.30;3.20;;;;;;;7.86;100.00;97974.95;1764872;80;21493;-43
2023/01/05 06:08:29;;;;;;;10.05;3.20;;;;;;;7.87;100.00;97974.00;1764726;81;21035;-43
2023/01/05 06:10:56;;;;;;;5.25;2.15;;;;;;;7.85;100.00;97964.59;1764769;81;21035;-41
2023/01/05 06:13:22;;;;;;;4.40;2.05;;;;;;;7.85;100.00;97967.20;1765075;80;21039;-40
2023/01/05 06:15:49;;;;;;;3.13;2.50;;;;;;;7.82;100.00;97963.02;1765154;81;21027;-40
2023/01/05 06:18:15;;;;;;;7.78;3.22;;;;;;;7.82;100.00;97963.02;1764828;80;21410;-39
2023/01/05 06:20:42;;;;;;;10.50;4.20;;;;;;;7.72;100.00;97970.26;1765003;81;21051;-43
2023/01/05 06:23:09;;;;;;;5.87;2.50;;;;;;;7.79;100.00;97975.47;1765054;81;20999;-40
2023/01/05 06:25:35;;;;;;;6.15;2.00;;;;;;;7.80;100.00;97968.80;1764803;81;20972;-40
2023/01/05 06:28:01;;;;;;;5.58;2.22;;;;;;;7.80;100.00;97964.04;1764826;80;21002;-40
2023/01/05 06:30:27;;;;;;;10.30;2.22;;;;;;;7.84;100.00;97970.30;1764926;80;21548;-41
2023/01/05 06:32:53;;;;;;;7.47;2.60;;;;;;;7.84;100.00;97968.99;1764805;81;20996;-42
2023/01/05 06:35:19;;;;;;;14.40;5.25;;;;;;;7.88;100.00;97963.09;1764862;80;20968;-43
2023/01/05 06:37:45;;;;;;;7.05;3.00;;;;;;;7.88;100.00;97967.84;1764842;81;21033;-41
2023/01/05 06:40:12;;;;;;;30.23;11.55;;;;;;;7.91;100.00;97973.33;1765116;80;20993;-42
2023/01/05 06:42:39;;;;;;;97.63;43.43;;;;;;;7.87;100.00;97970.08;1767059;81;21012;-42
2023/01/05 06:45:07;;;;;;;9.98;4.78;;;;;;;7.93;100.00;97980.64;1773133;80;20987;-41
2023/01/05 06:47:33;;;;;;;6.60;3.33;;;;;;;7.94;100.00;97973.63;1742972;81;21040;-43
2023/01/05 06:49:59;;;;;;;8.28;2.98;;;;;;;7.92;100.00;97980.73;1733452;82;21003;-41
2023/01/05 06:52:25;;;;;;;4.50;1.92;;;;;;;7.84;100.00;97975.98;1772932;80;20991;-44
2023/01/05 06:54:51;;;;;;;5.47;1.55;;;;;;;7.82;100.00;97970.88;1773037;81;21480;-42
2023/01/05 06:57:16;;;;;;;6.03;2.10;;;;;;;7.83;100.00;97974.32;1772931;81;21469;-41
2023/01/05 06:59:42;;;;;;;4.50;2.42;;;;;;;7.82;100.00;97973.49;1772950;81;21132;-42
2023/01/05 07:02:16;;;;;;;5.15;1.80;;;;;;;7.80;100.00;97975.81;1773047;81;20988;-41
2023/01/05 07:04:42;;;;;;;6.35;2.42;;;;;;;7.84;100.00;97981.22;1772883;81;21017;-41
2023/01/05 07:07:15;;;;;;;5.80;2.30;;;;;;;7.84;100.00;97979.91;1772906;81;20960;-41
2023/01/05 07:09:41;;;;;;;5.58;2.15;;;;;;;7.78;100.00;97980.31;1772813;81;20963;-43
2023/01/05 07:12:08;;;;;;;4.45;1.82;;;;;;;7.79;100.00;97982.84;1772889;81;20988;-42
2023/01/05 07:14:33;;;;;;;4.90;2.10;;;;;;;7.83;100.00;97993.95;1772959;81;20979;-42
2023/01/05 07:16:59;;;;;;;9.70;2.15;;;;;;;7.75;100.00;97994.90;1772911;81;21034;-41
2023/01/05 07:19:25;;;;;;;6.10;2.33;;;;;;;7.86;100.00;97989.36;1772978;81;21003;-42
2023/01/05 07:21:51;;;;;;;8.68;2.37;;;;;;;7.81;100.00;97990.12;1773155;81;20960;-44
2023/01/05 07:24:17;;;;;;;4.03;2.02;;;;;;;7.87;100.00;98004.58;1773096;81;21537;-43
2023/01/05 07:26:43;;;;;;;4.30;1.90;;;;;;;7.86;100.00;98005.54;1773080;81;21023;-42
2023/01/05 07:29:08;;;;;;;5.10;1.75;;;;;;;7.83;100.00;98003.94;1773122;81;21034;-42
2023/01/05 07:31:34;;;;;;;4.12;1.80;;;;;;;7.90;100.00;98001.77;1773094;80;21067;-41
2023/01/05 07:34:00;;;;;;;3.35;1.70;;;;;;;7.92;100.00;97995.97;1773137;81;20995;-41
2023/01/05 07:36:26;;;;;;;4.40;1.70;;;;;;;7.99;100.00;98005.09;1773058;81;20987;-41
2023/01/05 07:38:52;;;;;;;4.17;1.57;;;;;;;7.99;100.00;98009.02;1773073;81;20983;-42
2023/01/05 07:41:18;;;;;;;10.88;2.15;;;;;;;8.08;100.00;98007.11;1773034;81;21516;-43
2023/01/05 07:43:49;;;;;;;5.42;2.10;;;;;;;8.13;100.00;98000.72;1768233;81;21008;-41
2023/01/05 07:46:15;;;;;;;4.58;1.77;;;;;;;8.13;100.00;97995.04;1764934;80;21453;-41
2023/01/05 07:48:41;;;;;;;4.37;2.02;;;;;;;8.18;100.00;98002.58;1764974;81;21524;-40
2023/01/05 07:51:09;;;;;;;5.55;2.52;;;;;;;8.22;99.41;97998.80;1764960;80;21136;-42
2023/01/05 07:53:37;;;;;;;6.00;2.20;;;;;;;8.24;99.08;98016.11;1764895;81;21342;-43
2023/01/05 07:56:05;;;;;;;6.62;1.82;;;;;;;8.27;98.76;98007.20;1764927;81;20980;-40
2023/01/05 07:58:33;;;;;;;4.87;1.95;;;;;;;8.33;97.91;98002.89;1764915;81;21034;-41
2023/01/05 08:01:05;;;;;;;9.03;1.98;;;;;;;8.26;97.05;98018.64;1764930;80;20980;-40
2023/01/05 08:03:31;;;;;;;5.17;1.70;;;;;;;8.30;96.58;98021.41;1764689;81;20979;-40
2023/01/05 08:05:57;;;;;;;3.37;1.70;;;;;;;8.28;95.52;98014.13;1765030;81;21038;-42
2023/01/05 08:08:22;;;;;;;3.75;1.40;;;;;;;8.27;94.86;98012.44;1765044;80;21850;-41
2023/01/05 08:10:48;;;;;;;3.87;1.92;;;;;;;8.27;94.37;98034.70;1764969;80;21457;-40
2023/01/05 08:15:59;;;;;;;4.22;1.42;;;;;;;8.28;94.27;98035.09;1764932;81;21424;-42
2023/01/05 08:18:26;;;;;;;3.70;1.40;;;;;;;8.26;93.86;98039.59;1765179;81;21464;-42
2023/01/05 08:20:59;;;;;;;5.75;1.67;;;;;;;8.35;94.14;98031.56;1765040;81;20979;-43
2023/01/05 08:23:27;;;;;;;4.70;1.75;;;;;;;8.24;93.09;98033.59;1764890;81;20991;-40
2023/01/05 08:25:54;;;;;;;2.33;1.52;;;;;;;8.31;92.96;98041.41;1764848;80;21023;-42
2023/01/05 08:28:19;;;;;;;3.83;1.30;;;;;;;8.33;92.95;98040.00;1765058;80;21003;-41
2023/01/05 08:30:46;;;;;;;2.87;1.25;;;;;;;8.30;91.61;98042.37;1764893;80;21184;-41
2023/01/05 08:33:12;;;;;;;3.80;1.45;;;;;;;8.39;91.80;98042.23;1764929;81;21000;-45
2023/01/05 08:35:43;;;;;;;3.65;1.30;;;;;;;8.44;92.08;98042.33;1764880;81;20991;-42
2023/01/05 08:38:09;;;;;;;3.25;1.40;;;;;;;8.49;91.68;98058.20;1764866;81;20968;-43
2023/01/05 08:40:37;;;;;;;5.70;1.70;;;;;;;8.48;91.56;98041.66;1764859;81;20987;-42
2023/01/05 08:43:04;;;;;;;6.47;1.77;;;;;;;8.45;91.65;98053.64;1766415;80;21004;-40
2023/01/05 08:45:31;;;;;;;8.63;1.72;;;;;;;8.57;92.05;98050.69;1773257;80;21476;-43
2023/01/05 08:47:57;;;;;;;4.28;1.65;;;;;;;8.56;92.06;98046.38;1773166;81;20995;-42
2023/01/05 08:50:23;;;;;;;6.30;1.82;;;;;;;8.55;92.40;98050.78;1773021;81;20979;-42
2023/01/05 08:52:49;;;;;;;6.67;1.80;;;;;;;8.51;92.56;98053.70;1772934;81;21015;-42
2023/01/05 08:55:15;;;;;;;7.05;1.90;;;;;;;8.56;93.07;98059.47;1773001;81;20987;-42
2023/01/05 08:57:40;;;;;;;4.30;1.70;;;;;;;8.55;93.13;98053.85;1773271;81;20995;-44
2023/01/05 09:00:08;;;;;;;4.40;1.67;;;;;;;8.57;93.29;98055.45;1773011;81;20992;-43
2023/01/05 09:02:34;;;;;;;4.85;1.90;;;;;;;8.51;93.44;98055.84;1773194;80;20956;-41
2023/01/05 09:05:00;;;;;;;3.92;1.77;;;;;;;8.52;93.70;98068.01;1773016;81;21120;-45
2023/01/05 09:07:27;;;;;;;3.90;1.92;;;;;;;8.49;94.25;98058.20;1772965;81;20979;-42
2023/01/05 09:09:53;;;;;;;3.30;1.90;;;;;;;8.58;94.25;98061.03;1773109;81;21026;-42
2023/01/05 09:12:19;;;;;;;6.67;2.00;;;;;;;8.53;94.06;98084.56;1772966;80;21318;-44
2023/01/05 09:14:45;;;;;;;7.15;2.15;;;;;;;8.63;93.76;98079.09;1773043;81;20991;-43
2023/01/05 09:17:11;;;;;;;3.72;2.02;;;;;;;8.64;93.35;98088.61;1773120;81;21022;-42
2023/01/05 09:19:37;;;;;;;5.03;2.62;;;;;;;8.64;93.30;98078.13;1773046;81;21452;-43
2023/01/05 09:22:04;;;;;;;5.53;1.75;;;;;;;8.66;93.12;98072.34;1772460;81;21106;-43
2023/01/05 09:24:30;;;;;;;4.33;2.27;;;;;;;8.65;92.27;98074.58;1772653;80;21441;-42
2023/01/05 09:26:56;;;;;;;8.65;3.35;;;;;;;8.72;92.42;98061.91;1773104;81;20995;-44
2023/01/05 09:29:22;;;;;;;7.08;2.90;;;;;;;8.69;91.80;98072.59;1772944;81;20983;-41
2023/01/05 09:31:48;;;;;;;7.47;2.60;;;;;;;8.64;91.39;98055.85;1772863;81;20987;-41
2023/01/05 09:34:15;;;;;;;5.70;2.27;;;;;;;8.67;91.44;98062.21;1772978;81;20999;-43
2023/01/05 09:36:41;;;;;;;6.50;2.55;;;;;;;8.70;91.32;98073.80;1773081;81;21039;-41
2023/01/05 09:39:07;;;;;;;8.68;3.55;;;;;;;8.58;90.87;98064.14;1772880;81;20971;-41
2023/01/05 09:41:49;;;;;;;10.58;3.45;;;;;;;8.58;90.87;98064.14;1772993;81;20991;-44
2023/01/05 09:44:38;;;;;;;9.20;3.45;;;;;;;8.65;90.80;98073.27;1772966;81;21058;-41
2023/01/05 09:47:37;;;;;;;11.35;3.00;;;;;;;8.62;90.87;98069.09;1772920;81;20975;-41
2023/01/05 09:50:07;;;;;;;5.50;2.92;;;;;;;8.63;91.07;98073.84;1773034;80;20991;-42
2023/01/05 09:52:34;;;;;;;7.92;2.67;;;;;;;8.64;90.95;98060.64;1770787;81;21124;-40
2023/01/05 09:55:04;;;;;;;7.62;2.83;;;;;;;8.69;90.89;98062.11;1773035;81;21104;-44
2023/01/05 09:57:31;;;;;;;29.63;4.58;;;;;;;8.75;91.08;98059.06;1772686;81;21023;-42
2023/01/05 10:00:02;;;;;;;30.82;9.65;;;;;;;8.75;90.67;98058.62;1772939;80;21627;-42
2023/01/05 10:02:51;;;;;;;5.08;3.22;;;;;;;8.77;90.30;98054.59;1772703;81;21464;-41
2023/01/05 10:05:18;;;;;;;8.93;2.25;;;;;;;8.87;90.37;98053.00;1773039;81;21061;-42
2023/01/05 10:07:58;;;;;;;7.10;2.35;;;;;;;8.93;89.85;98051.73;1773117;81;20982;-40
2023/01/05 10:13:30;;;;;;;12.05;2.12;;;;;;;8.89;89.13;98064.22;1700258;81;20995;-40
2023/01/05 10:15:56;;;;;;;29.00;3.20;;;;;;;8.88;88.08;98053.38;1757536;81;20978;-40
2023/01/05 10:18:26;;;;;;;7.17;2.05;;;;;;;8.90;88.22;98055.91;1757626;81;20994;-43
2023/01/05 10:21:22;;;;;;;7.00;1.72;;;;;;;8.75;87.81;98049.44;1757378;81;21498;-44
2023/01/05 10:24:33;;;;;;;4.00;1.90;;;;;;;8.79;87.54;98063.19;1730522;82;20977;-40
2023/01/05 10:27:10;;;;;;;4.25;1.77;;;;;;;8.75;87.17;98057.75;1757245;82;21009;-40
2023/01/05 10:29:46;;;;;;;4.35;2.10;;;;;;;8.72;86.60;98078.95;1728300;81;21043;-41
2023/01/05 10:32:31;;;;;;;5.90;2.58;;;;;;;8.67;86.35;98060.90;1717679;81;21002;-40
2023/01/05 10:35:01;;;;;;;5.58;2.47;;;;;;;8.62;86.61;98057.74;1762138;81;20970;-40
2023/01/05 10:38:01;;;;;;;7.45;2.52;;;;;;;8.71;86.96;98057.13;1755231;81;20955;-40
2023/01/05 10:40:44;;;;;;;7.17;3.27;;;;;;;8.68;86.43;98069.59;1682377;83;20988;-40
2023/01/05 10:43:31;;;;;;;5.53;3.17;;;;;;;8.70;86.43;98065.11;1649810;83;21000;-40
2023/01/05 10:45:57;;;;;;;5.57;2.47;;;;;;;8.73;86.57;98069.68;1681598;84;21004;-40
2023/01/05 10:48:28;;;;;;;7.20;2.92;;;;;;;8.71;86.09;98068.91;1699501;83;21042;-39
2023/01/05 10:50:56;;;;;;;6.12;2.60;;;;;;;8.74;86.14;98056.92;1696952;84;21042;-41
2023/01/05 10:53:27;;;;;;;3.98;2.30;;;;;;;8.73;85.90;98057.88;1667934;84;21127;-40
2023/01/05 10:56:10;;;;;;;4.72;1.75;;;;;;;8.70;85.68;98075.12;1664983;86;21589;-40
2023/01/05 10:58:40;;;;;;;6.60;1.52;;;;;;;8.78;85.59;98057.08;1682522;83;20986;-40
2023/01/05 11:01:23;;;;;;;6.60;2.40;;;;;;;8.77;85.45;98065.90;1683667;84;21041;-40
2023/01/05 11:04:10;;;;;;;9.28;2.05;;;;;;;8.78;85.72;98058.87;1701923;83;21037;-40
2023/01/05 11:06:36;;;;;;;5.30;2.10;;;;;;;8.78;85.51;98064.94;1678687;83;21006;-39
2023/01/05 11:09:18;;;;;;;3.93;2.00;;;;;;;8.77;85.44;98059.83;1677921;83;21117;-40
2023/01/05 11:11:58;;;;;;;7.45;1.85;;;;;;;8.70;85.72;98075.12;1683971;84;21019;-42
2023/01/05 11:14:26;;;;;;;15.85;2.92;;;;;;;8.73;85.95;98072.30;1706829;83;21010;-41
2023/01/05 11:16:56;;;;;;;9.30;1.95;;;;;;;8.76;85.87;98083.87;1763886;80;20931;-41
2023/01/05 11:19:28;;;;;;;4.12;2.12;;;;;;;8.76;85.77;98067.31;1758680;81;21501;-42
2023/01/05 11:21:53;;;;;;;5.28;2.25;;;;;;;8.78;85.50;98062.32;1760306;81;21511;-40
2023/01/05 11:24:30;;;;;;;3.05;1.85;;;;;;;8.90;85.50;98063.28;1752884;81;21027;-42
2023/01/05 11:27:00;;;;;;;5.17;2.20;;;;;;;8.98;85.32;98077.17;1753164;81;21479;-42
2023/01/05 11:29:27;;;;;;;3.35;1.80;;;;;;;9.15;85.47;98059.83;1753806;81;21022;-41
2023/01/05 11:32:04;;;;;;;3.63;2.37;;;;;;;9.20;84.36;98063.42;1754782;82;21042;-41
2023/01/05 11:34:41;;;;;;;;;;;;;;;9.26;82.79;98055.59;1757280;82;20975;-41
2023/01/05 11:37:25;;;;;;;2.95;1.60;;;;;;;9.29;82.32;98066.72;1753969;80;20107;-40
2023/01/05 11:40:00;;;;;;;3.60;1.70;;;;;;;9.32;81.48;98065.68;1754604;82;21586;-41
2023/01/05 11:42:41;;;;;;;3.80;1.50;;;;;;;9.36;81.20;98067.97;1754578;81;20995;-40
2023/01/05 11:45:24;;;;;;;6.10;1.35;;;;;;;9.25;80.35;98067.88;1736914;81;21011;-40
2023/01/05 11:47:57;;;;;;;3.30;1.67;;;;;;;9.35;80.21;98085.98;1729455;83;20995;-40
2023/01/05 11:50:31;;;;;;;5.75;1.90;;;;;;;9.45;80.19;98074.36;1729579;83;20994;-41
2023/01/05 11:53:00;;;;;;;4.83;1.90;;;;;;;9.34;80.38;98084.77;1726496;81;20991;-43
2023/01/05 11:55:38;;;;;;;5.85;2.85;;;;;;;9.45;80.92;98074.36;1729496;83;21473;-41
2023/01/05 11:58:24;;;;;;;4.05;2.20;;;;;;;9.50;81.43;98068.80;1729493;82;21030;-42
2023/01/05 12:01:16;;;;;;;3.45;1.82;;;;;;;9.38;81.01;98070.01;1729588;83;20995;-41
2023/01/05 12:04:11;;;;;;;5.20;2.20;;;;;;;9.35;80.24;98079.42;1697050;83;20998;-42
2023/01/05 12:06:58;;;;;;;6.97;2.58;;;;;;;9.18;80.73;98068.77;1729571;83;21018;-40
2023/01/05 12:09:37;;;;;;;6.70;3.80;;;;;;;9.17;81.59;98076.29;1725343;83;21001;-41
2023/01/05 12:12:45;;;;;;;4.92;1.98;;;;;;;9.16;81.92;98070.66;1725051;83;21034;-42
2023/01/05 12:15:28;;;;;;;5.37;3.10;;;;;;;9.11;81.95;98076.69;1724641;83;21582;-40
2023/01/05 12:18:42;;;;;;;7.28;2.72;;;;;;;8.98;81.63;98088.50;1725044;83;21507;-41
2023/01/05 12:21:25;;;;;;;11.83;2.77;;;;;;;8.98;82.06;98081.11;1714216;83;20995;-43
2023/01/05 12:24:25;;;;;;;7.85;3.80;;;;;;;8.94;82.34;98087.03;1724840;83;20975;-41
2023/01/05 12:27:05;;;;;;;6.10;2.55;;;;;;;8.95;82.52;98099.66;1725228;83;20956;-41
2023/01/05 12:29:57;;;;;;;3.45;2.10;;;;;;;9.05;82.30;98098.11;1724882;81;20994;-43
2023/01/05 12:32:55;;;;;;;6.55;3.30;;;;;;;9.05;81.14;98105.14;1725325;83;21002;-41